Time;durP1;ratioP1;P1;durP2;ratioP2;P2;SDS_P1;SDS_P2;PMS_P1;PMS_P2;Temp;Humidity;BMP_temperature;BMP_pressure;BME280_temperature;BME280_humidity;BME280_pressure;Samples;Min_cycle;Max_cycle;Signal;HPM_P1;HPM_P2
2022/02/09 00:07:23;;;;;;;15.55;10.35;;;11.00;93.70;;;;;;5046131;28;20067;-74
2022/02/09 00:09:49;;;;;;;16.15;9.70;;;11.00;93.50;;;;;;5045678;28;20037;-74
2022/02/09 00:12:27;;;;;;;17.23;10.02;;;11.00;93.60;;;;;;5044838;28;20110;-74
2022/02/09 00:23:30;;;;;;;14.20;9.27;;;10.90;93.50;;;;;;5046386;28;20041;-74
2022/02/09 00:34:27;;;;;;;14.15;8.93;;;10.90;93.50;;;;;;5044290;28;20501;-74
2022/02/09 01:11:17;;;;;;;16.52;9.80;;;11.00;93.20;;;;;;5044612;28;20128;-74
2022/02/09 01:38:54;;;;;;;13.00;9.40;;;11.00;93.00;;;;;;5045007;28;20531;-74
2022/02/09 01:42:45;;;;;;;12.68;8.73;;;11.00;92.90;;;;;;5044861;28;20125;-75
2022/02/09 01:51:12;;;;;;;12.95;9.25;;;11.00;93.00;;;;;;5043275;28;20037;-75
2022/02/09 01:55:27;;;;;;;12.25;8.75;;;11.00;92.90;;;;;;5023998;28;20025;-74
2022/02/09 01:57:52;;;;;;;13.07;8.93;;;11.00;93.00;;;;;;5023076;28;20825;-75
2022/02/09 02:00:18;;;;;;;16.92;9.25;;;10.90;93.40;;;;;;5035723;28;20016;-75
2022/02/09 02:02:44;;;;;;;12.63;8.77;;;10.90;93.40;;;;;;5063353;28;20033;-75
2022/02/09 02:05:10;;;;;;;11.02;8.73;;;10.90;93.70;;;;;;5063270;28;20048;-75
2022/02/09 02:10:07;;;;;;;11.38;8.48;;;10.80;93.80;;;;;;5063379;28;20036;-74
2022/02/09 02:13:07;;;;;;;12.00;9.02;;;10.80;94.00;;;;;;5063098;28;20764;-73
2022/02/09 02:18:18;;;;;;;13.20;8.95;;;10.80;94.00;;;;;;5062260;28;20059;-74
2022/02/09 02:21:02;;;;;;;10.98;7.95;;;10.80;94.20;;;;;;5063356;28;20044;-74
2022/02/09 02:23:44;;;;;;;12.65;8.88;;;10.70;94.20;;;;;;5063626;28;20040;-74
2022/02/09 02:34:38;;;;;;;11.32;8.52;;;10.60;94.50;;;;;;5064305;28;20036;-75
2022/02/09 02:47:22;;;;;;;11.40;8.82;;;10.60;94.60;;;;;;5023278;28;20108;-75
2022/02/09 03:14:10;;;;;;;16.42;11.60;;;10.70;94.30;;;;;;5044356;28;20389;-75
2022/02/09 03:16:41;;;;;;;17.55;11.90;;;10.60;94.30;;;;;;5044463;28;20033;-76
2022/02/09 03:19:42;;;;;;;20.52;13.18;;;10.70;94.30;;;;;;5044434;28;20047;-75
2022/02/09 03:24:51;;;;;;;17.50;12.32;;;10.70;94.20;;;;;;5041666;28;20029;-76
2022/02/09 03:43:57;;;;;;;19.55;12.57;;;10.70;93.70;;;;;;5043351;28;20045;-75
2022/02/09 03:49:12;;;;;;;16.42;11.25;;;10.70;93.70;;;;;;5043997;28;20037;-75
2022/02/09 03:54:19;;;;;;;17.42;12.38;;;10.70;93.60;;;;;;5043333;28;20090;-76
2022/02/09 03:56:59;;;;;;;15.32;11.38;;;10.70;93.60;;;;;;5042644;28;20071;-76
2022/02/09 03:59:28;;;;;;;15.40;10.73;;;10.70;93.40;;;;;;5039625;28;20033;-75
2022/02/09 04:01:54;;;;;;;14.70;10.98;;;10.70;93.60;;;;;;5035333;28;20036;-75
2022/02/09 04:04:19;;;;;;;14.98;11.20;;;10.60;93.30;;;;;;5042980;28;20766;-75
2022/02/09 04:06:49;;;;;;;15.63;10.57;;;10.70;93.30;;;;;;5043476;28;20091;-76
2022/02/09 04:09:17;;;;;;;16.63;10.77;;;10.70;93.30;;;;;;5042027;28;20484;-75
2022/02/09 04:41:18;;;;;;;9.93;8.00;;;10.70;92.20;;;;;;5041402;28;20032;-76
2022/02/09 04:43:58;;;;;;;9.67;7.07;;;10.70;92.10;;;;;;5041608;28;20055;-76
2022/02/09 04:49:35;;;;;;;10.00;6.82;;;10.80;92.10;;;;;;5041612;28;20783;-75
2022/02/09 04:52:19;;;;;;;10.57;6.63;;;10.80;92.00;;;;;;5042123;28;20082;-76
2022/02/09 04:54:59;;;;;;;9.05;6.78;;;10.70;91.90;;;;;;5041867;28;20111;-75
2022/02/09 04:57:47;;;;;;;9.38;6.07;;;10.80;91.90;;;;;;5040965;28;20043;-75
2022/02/09 05:25:15;;;;;;;11.95;5.90;;;10.80;91.20;;;;;;5039587;28;20098;-76
2022/02/09 05:27:21;;;;;;;9.90;5.30;;;10.80;91.00;;;;;;5037785;28;20080;-75
2022/02/09 05:29:47;;;;;;;7.90;5.70;;;10.70;90.90;;;;;;5041264;28;20431;-75
2022/02/09 05:32:13;;;;;;;7.93;5.63;;;10.70;91.10;;;;;;5041490;28;20082;-75
2022/02/09 05:34:39;;;;;;;8.07;5.13;;;10.70;90.90;;;;;;5022225;28;20275;-75
2022/02/09 05:37:04;;;;;;;8.88;5.45;;;10.60;90.80;;;;;;5041204;28;20132;-75
2022/02/09 05:39:30;;;;;;;7.75;5.43;;;10.60;90.80;;;;;;5041080;28;20071;-76
2022/02/09 05:41:56;;;;;;;8.20;5.55;;;10.60;91.00;;;;;;5041536;28;20069;-76
2022/02/09 05:44:23;;;;;;;8.15;5.60;;;10.60;90.70;;;;;;5038404;28;20037;-76
2022/02/09 05:47:45;;;;;;;10.10;5.53;;;10.60;90.70;;;;;;5040405;28;20044;-76
2022/02/09 05:59:50;;;;;;;35.05;14.05;;;10.50;90.50;;;;;;5106622;22;20043;-67
2022/02/09 06:02:16;;;;;;;20.70;10.25;;;10.50;90.80;;;;;;5443894;22;20031;-74
2022/02/09 06:07:08;;;;;;;15.35;8.18;;;10.50;90.70;;;;;;5113005;23;20504;-67
2022/02/09 06:12:42;;;;;;;9.95;5.75;;;10.50;90.70;;;;;;5112567;22;20056;-74
2022/02/09 06:20:46;;;;;;;7.90;5.22;;;10.50;90.70;;;;;;4994217;28;20029;-74
2022/02/09 06:23:12;;;;;;;8.63;4.95;;;10.50;90.50;;;;;;5002254;28;20061;-74
2022/02/09 06:25:38;;;;;;;7.15;4.90;;;10.50;90.50;;;;;;4998555;28;20264;-74
2022/02/09 06:28:04;;;;;;;10.30;5.40;;;10.60;90.50;;;;;;5002625;28;20536;-74
2022/02/09 06:30:29;;;;;;;9.80;5.30;;;10.60;90.20;;;;;;5002611;28;20036;-74
2022/02/09 06:32:55;;;;;;;6.55;5.30;;;10.60;90.10;;;;;;5000383;28;20041;-74
2022/02/09 06:35:21;;;;;;;9.55;5.40;;;10.60;90.10;;;;;;5001724;28;20172;-74
2022/02/09 06:37:48;;;;;;;7.65;5.63;;;10.60;90.00;;;;;;5001993;28;20034;-74
2022/02/09 06:40:18;;;;;;;6.32;4.82;;;10.60;89.80;;;;;;5005223;28;20573;-74
2022/02/09 06:42:44;;;;;;;8.13;5.40;;;10.60;89.90;;;;;;5006105;28;20034;-74
2022/02/09 06:47:43;;;;;;;7.50;5.20;;;10.70;88.90;;;;;;5005799;28;20029;-74
2022/02/09 06:50:15;;;;;;;7.65;5.38;;;10.60;88.50;;;;;;5000350;28;20101;-74
2022/02/09 06:52:45;;;;;;;6.30;4.47;;;10.70;88.50;;;;;;4968630;28;20049;-74
2022/02/09 06:55:20;;;;;;;6.05;3.90;;;10.60;88.50;;;;;;4986182;28;20061;-74
2022/02/09 07:00:14;;;;;;;5.82;4.10;;;10.50;89.30;;;;;;4986169;28;20027;-74
2022/02/09 07:02:41;;;;;;;7.47;4.13;;;10.60;89.30;;;;;;4985825;28;20529;-74
2022/02/09 07:05:14;;;;;;;5.60;4.07;;;10.60;88.80;;;;;;4985985;28;20049;-74
2022/02/09 07:07:41;;;;;;;5.05;3.60;;;10.60;88.50;;;;;;4985050;28;20036;-74
2022/02/09 07:10:08;;;;;;;4.65;3.53;;;10.60;88.30;;;;;;4968230;28;20026;-74
2022/02/09 07:12:35;;;;;;;9.52;4.05;;;10.50;88.40;;;;;;4984512;28;20542;-74
2022/02/09 07:15:02;;;;;;;5.35;3.85;;;10.50;88.50;;;;;;4985615;28;20057;-74
2022/02/09 07:17:28;;;;;;;8.23;4.32;;;10.50;87.90;;;;;;4985701;28;20061;-74
2022/02/09 07:20:04;;;;;;;5.57;3.45;;;10.50;88.50;;;;;;4985507;28;20665;-74
2022/02/09 07:22:31;;;;;;;5.90;3.35;;;10.60;87.80;;;;;;4985720;28;20492;-74
2022/02/09 07:27:55;;;;;;;7.25;2.88;;;10.60;87.30;;;;;;4971858;28;20042;-74
2022/02/09 07:30:23;;;;;;;3.30;3.00;;;10.60;86.50;;;;;;5005603;28;20045;-74
2022/02/09 07:32:53;;;;;;;4.22;3.03;;;10.60;86.90;;;;;;5005583;28;20046;-74
2022/02/09 07:35:19;;;;;;;5.18;3.20;;;10.60;87.10;;;;;;5005526;28;20049;-74
2022/02/09 07:37:45;;;;;;;4.75;3.03;;;10.60;87.40;;;;;;5005111;28;20098;-74
2022/02/09 07:40:12;;;;;;;2.58;2.33;;;10.60;87.50;;;;;;4970972;28;20604;-74
2022/02/09 07:42:52;;;;;;;2.90;2.60;;;10.70;87.40;;;;;;5005100;28;20504;-74
2022/02/09 07:45:44;;;;;;;4.22;2.47;;;10.70;86.40;;;;;;4995145;28;20042;-74
2022/02/09 07:48:26;;;;;;;5.57;2.50;;;10.70;85.90;;;;;;5004913;28;20034;-74
2022/02/09 07:51:56;;;;;;;3.00;2.70;;;10.70;86.20;;;;;;5004325;28;20044;-74
2022/02/09 07:53:59;;;;;;;3.65;2.13;;;10.80;85.30;;;;;;4995438;28;20060;-74
2022/02/09 07:56:27;;;;;;;2.88;2.55;;;10.80;84.90;;;;;;4986234;28;20088;-74
2022/02/09 07:58:52;;;;;;;4.78;2.47;;;10.70;85.60;;;;;;5002941;28;20026;-74
2022/02/09 08:01:18;;;;;;;3.85;2.38;;;10.70;85.70;;;;;;5004274;28;20068;-74
2022/02/09 08:03:44;;;;;;;4.05;2.05;;;10.80;85.20;;;;;;4986118;28;20150;-74
2022/02/09 08:06:11;;;;;;;3.33;2.03;;;10.80;84.90;;;;;;5003862;28;20072;-74
2022/02/09 08:08:39;;;;;;;2.65;2.17;;;10.90;84.70;;;;;;5004520;28;20037;-74
2022/02/09 08:34:51;;;;;;;5.15;2.40;;;10.90;83.00;;;;;;5003230;28;20068;-74
2022/02/09 08:37:17;;;;;;;3.85;2.20;;;10.90;84.00;;;;;;5001408;28;20041;-74
2022/02/09 08:39:43;;;;;;;2.88;2.35;;;11.00;82.90;;;;;;4985810;28;20940;-74
2022/02/09 08:42:08;;;;;;;2.50;1.95;;;11.00;82.20;;;;;;5003539;28;20030;-74
2022/02/09 08:44:34;;;;;;;4.88;2.30;;;11.10;82.50;;;;;;5002137;28;20041;-74
2022/02/09 08:47:00;;;;;;;3.17;2.10;;;11.10;82.20;;;;;;5001414;28;20038;-74
2022/02/09 08:49:26;;;;;;;3.10;2.00;;;11.10;81.60;;;;;;5003766;28;20116;-74
2022/02/09 08:51:56;;;;;;;2.50;2.10;;;11.10;82.10;;;;;;5002262;28;20630;-74
2022/02/09 08:54:21;;;;;;;4.18;2.20;;;11.20;81.80;;;;;;5003601;28;20045;-74
2022/02/09 08:56:47;;;;;;;4.03;1.88;;;11.30;81.20;;;;;;5002491;28;20056;-74
2022/02/09 08:59:13;;;;;;;2.30;1.73;;;11.30;80.30;;;;;;5003094;28;20104;-74
2022/02/09 09:01:43;;;;;;;2.15;1.95;;;11.40;80.70;;;;;;5002252;28;20087;-74
2022/02/09 09:04:18;;;;;;;3.53;1.88;;;11.50;80.40;;;;;;5001749;28;20049;-74
2022/02/09 09:06:51;;;;;;;4.10;2.00;;;11.50;80.00;;;;;;5001829;28;20040;-74
2022/02/09 09:09:26;;;;;;;3.92;2.38;;;11.60;79.60;;;;;;5003178;28;20415;-74
2022/02/09 09:58:02;;;;;;;3.67;2.58;;;11.40;80.60;;;;;;5000933;28;20041;-74
2022/02/09 09:58:30;;;;;;;4.75;2.75;;;11.10;81.50;;;;;;5002833;28;20057;-74
2022/02/09 10:01:19;;;;;;;4.43;2.80;;;11.10;81.80;;;;;;5002939;28;20387;-74
2022/02/09 10:33:56;;;;;;;4.18;2.00;;;11.70;79.40;;;;;;4962648;28;20035;-75
2022/02/09 10:36:22;;;;;;;3.28;2.25;;;11.70;79.80;;;;;;4963615;28;20100;-75
2022/02/09 10:38:50;;;;;;;4.30;2.00;;;11.80;79.30;;;;;;4962233;28;20534;-75
2022/02/09 10:41:27;;;;;;;2.13;1.40;;;11.80;77.80;;;;;;4963719;28;20041;-74
2022/02/09 10:44:09;;;;;;;6.20;2.15;;;11.70;78.30;;;;;;4961672;28;20070;-75
2022/02/09 10:46:56;;;;;;;5.20;2.15;;;11.70;78.50;;;;;;4960096;28;20078;-75
2022/02/09 10:49:26;;;;;;;4.15;2.10;;;11.60;78.40;;;;;;4962941;28;20038;-75
2022/02/09 10:52:05;;;;;;;2.45;1.63;;;11.60;78.90;;;;;;4935792;28;20035;-74
2022/02/09 10:54:33;;;;;;;3.88;1.50;;;11.60;79.00;;;;;;4949391;28;20398;-74
2022/02/09 10:57:02;;;;;;;3.60;2.50;;;11.70;78.60;;;;;;4964180;28;20077;-74
2022/02/09 10:59:35;;;;;;;12.25;5.57;;;11.70;78.90;;;;;;4962449;28;20049;-74
2022/02/09 11:02:02;;;;;;;6.90;2.30;;;11.80;78.90;;;;;;4959923;28;20034;-74
2022/02/09 11:04:29;;;;;;;6.22;2.90;;;11.90;78.50;;;;;;4960342;28;20031;-74
2022/02/09 11:06:55;;;;;;;14.35;4.15;;;12.00;77.70;;;;;;4959594;28;20050;-73
2022/02/09 11:09:22;;;;;;;13.90;3.33;;;12.00;77.50;;;;;;4961899;28;20554;-74
2022/02/09 11:11:48;;;;;;;18.80;5.03;;;12.10;77.80;;;;;;4961709;28;20038;-74
2022/02/09 11:14:19;;;;;;;13.57;4.15;;;12.10;77.20;;;;;;4961786;28;20058;-74
2022/02/09 11:16:52;;;;;;;3.15;2.25;;;12.20;77.10;;;;;;4960128;28;20734;-74
2022/02/09 11:19:19;;;;;;;7.90;4.10;;;12.20;77.50;;;;;;4960037;28;20031;-74
2022/02/09 11:21:50;;;;;;;7.45;4.30;;;12.30;76.50;;;;;;4961226;28;20053;-74
2022/02/09 11:24:25;;;;;;;8.27;3.83;;;12.20;76.60;;;;;;4961095;28;20046;-75
2022/02/09 11:39:03;;;;;;;4.05;2.00;;;12.10;77.60;;;;;;4964020;28;20325;-66
2022/02/09 11:41:39;;;;;;;5.20;3.38;;;12.20;77.30;;;;;;4960715;28;20042;-66
2022/02/09 11:46:45;;;;;;;4.80;2.92;;;12.10;76.80;;;;;;4976897;28;20035;-66
2022/02/09 12:09:52;;;;;;;2.33;2.00;;;12.00;78.60;;;;;;4961848;28;20046;-65
2022/02/09 12:12:24;;;;;;;3.17;2.35;;;11.80;80.90;;;;;;4934490;28;20053;-66
2022/02/09 12:15:12;;;;;;;4.38;3.03;;;11.80;81.90;;;;;;4961012;28;20131;-68
2022/02/09 12:17:52;;;;;;;5.85;2.97;;;11.70;82.80;;;;;;4946036;28;20041;-69
2022/02/09 12:23:03;;;;;;;3.47;3.00;;;11.50;85.80;;;;;;4963775;28;20042;-67
2022/02/09 12:25:47;;;;;;;5.95;3.30;;;11.40;86.90;;;;;;4945863;28;20038;-67
2022/02/09 12:28:14;;;;;;;5.22;3.50;;;11.40;88.30;;;;;;4963842;28;20023;-67
2022/02/09 12:33:24;;;;;;;6.97;3.58;;;11.30;88.70;;;;;;5231213;23;20547;-75
2022/02/09 12:35:51;;;;;;;3.17;2.47;;;11.30;88.20;;;;;;4966627;28;20022;-75
2022/02/09 12:38:31;;;;;;;2.95;2.60;;;11.30;88.60;;;;;;4979202;28;20034;-75
2022/02/09 12:41:21;;;;;;;6.70;4.68;;;11.30;88.40;;;;;;4969168;28;20035;-75
2022/02/09 12:43:54;;;;;;;4.95;2.60;;;11.40;88.20;;;;;;4961843;28;20047;-74
2022/02/09 12:46:29;;;;;;;3.33;3.03;;;11.40;88.50;;;;;;4944776;28;20453;-75
2022/02/09 12:49:10;;;;;;;2.70;2.50;;;11.50;88.80;;;;;;4944375;28;20046;-75
2022/02/09 12:51:37;;;;;;;4.15;3.28;;;11.50;87.80;;;;;;4978116;28;20093;-75
2022/02/09 12:54:04;;;;;;;6.13;2.50;;;11.70;87.20;;;;;;4965460;28;20034;-75
2022/02/09 12:56:37;;;;;;;2.85;2.30;;;11.70;86.20;;;;;;4982207;28;20045;-74
2022/02/09 12:59:08;;;;;;;5.38;2.83;;;11.80;85.40;;;;;;4982006;28;20023;-74
2022/02/09 13:01:44;;;;;;;2.45;2.25;;;11.80;84.60;;;;;;4982077;28;20753;-75
2022/02/09 13:04:29;;;;;;;6.82;3.47;;;11.90;84.90;;;;;;4982145;28;20062;-75
2022/02/09 13:06:55;;;;;;;3.78;2.63;;;11.90;84.80;;;;;;4955633;28;20058;-75
2022/02/09 13:09:20;;;;;;;4.10;2.45;;;12.00;84.50;;;;;;4977891;28;20050;-74
2022/02/09 13:11:46;;;;;;;5.90;2.88;;;11.90;84.50;;;;;;4981676;28;20061;-75
2022/02/09 13:14:17;;;;;;;6.82;2.90;;;12.00;84.60;;;;;;4981382;28;20185;-74
2022/02/09 13:17:05;;;;;;;3.88;2.28;;;11.90;83.90;;;;;;4981744;28;20034;-74
2022/02/09 13:25:53;;;;;;;1.95;1.60;;;11.60;83.90;;;;;;4980668;28;20424;-74
2022/02/09 13:53:12;;;;;;;2.00;1.80;;;11.80;83.70;;;;;;5742257;23;20058;-67
2022/02/09 14:53:25;;;;;;;3.50;1.70;;;11.50;84.50;;;;;;4952439;28;20133;-73
2022/02/09 14:58:22;;;;;;;1.60;1.50;;;11.40;84.90;;;;;;4961071;28;20034;-73
2022/02/09 15:01:00;;;;;;;3.00;1.80;;;11.40;84.90;;;;;;4966802;28;20041;-71
2022/02/09 15:09:05;;;;;;;1.40;1.30;;;11.40;86.40;;;;;;4963466;28;20031;-73
2022/02/09 15:11:51;;;;;;;2.00;1.75;;;11.30;87.20;;;;;;4971838;28;20858;-73
2022/02/09 15:17:33;;;;;;;2.53;1.80;;;11.30;88.00;;;;;;4941531;28;20046;-72
2022/02/09 15:22:33;;;;;;;2.80;1.80;;;11.20;88.40;;;;;;4956745;28;20058;-73
2022/02/09 15:24:59;;;;;;;1.77;1.48;;;11.20;88.30;;;;;;4965398;28;20035;-74
2022/02/09 15:27:24;;;;;;;1.73;1.63;;;11.20;88.00;;;;;;4970220;28;20478;-74
2022/02/09 15:29:51;;;;;;;2.08;1.75;;;11.30;88.00;;;;;;4962750;28;20090;-74
2022/02/09 15:32:25;;;;;;;1.85;1.55;;;11.20;87.30;;;;;;4967881;28;20644;-74
2022/02/09 15:35:01;;;;;;;2.45;1.75;;;11.30;87.60;;;;;;4958266;28;20046;-74
2022/02/09 15:37:41;;;;;;;2.60;2.00;;;11.30;87.20;;;;;;4964813;28;20145;-74
2022/02/09 15:40:21;;;;;;;1.80;1.70;;;11.30;87.20;;;;;;4958017;28;20043;-74
2022/02/09 15:56:57;;;;;;;3.15;2.13;;;11.40;86.90;;;;;;4961364;28;20039;-73
2022/02/09 15:59:38;;;;;;;2.80;1.80;;;11.40;86.70;;;;;;4961515;28;20819;-73
2022/02/09 16:09:50;;;;;;;47.10;27.38;;;11.30;85.90;;;;;;4964857;28;20026;-73
2022/02/09 16:18:42;;;;;;;17.13;10.23;;;11.30;84.50;;;;;;4967467;28;20026;-69
2022/02/09 16:23:05;;;;;;;9.55;5.25;;;11.30;84.40;;;;;;4967935;28;20037;-71
2022/02/09 16:39:05;;;;;;;3.28;2.50;;;11.30;83.60;;;;;;4955376;28;20074;-71
2022/02/09 16:44:31;;;;;;;5.55;3.80;;;11.20;84.00;;;;;;4962822;28;20043;-70
2022/02/09 16:46:58;;;;;;;5.10;3.25;;;11.20;84.10;;;;;;4971552;28;20029;-72
2022/02/09 16:49:39;;;;;;;2.97;2.05;;;11.20;84.40;;;;;;4964344;28;20034;-73
2022/02/09 16:52:14;;;;;;;2.55;2.35;;;11.20;84.90;;;;;;4958289;28;20497;-74
2022/02/09 16:54:53;;;;;;;2.35;2.08;;;11.20;85.20;;;;;;4970472;28;20038;-74
2022/02/09 17:08:40;;;;;;;2.78;2.22;;;11.00;85.40;;;;;;4961497;28;20038;-74
2022/02/09 17:15:31;;;;;;;4.13;2.83;;;11.00;86.10;;;;;;4957518;28;20050;-74
2022/02/09 17:19:32;;;;;;;2.45;2.25;;;11.00;86.20;;;;;;4959303;28;19949;-74
2022/02/09 17:21:58;;;;;;;2.53;2.20;;;10.90;86.30;;;;;;4959983;28;20031;-74
2022/02/09 17:24:24;;;;;;;6.13;2.30;;;11.00;86.40;;;;;;4953351;28;20035;-72
2022/02/09 17:26:53;;;;;;;3.20;2.28;;;10.90;87.10;;;;;;4958900;28;20093;-72
2022/02/09 17:29:22;;;;;;;2.90;2.42;;;10.80;87.40;;;;;;4961993;28;20727;-73
2022/02/09 17:31:58;;;;;;;3.05;2.75;;;10.80;87.70;;;;;;4966146;28;20041;-73
2022/02/09 17:34:49;;;;;;;3.38;2.80;;;10.80;88.00;;;;;;4948275;28;20063;-74
2022/02/09 17:37:45;;;;;;;4.05;2.72;;;10.80;88.00;;;;;;4973232;28;20053;-73
2022/02/09 17:53:58;;;;;;;3.72;3.38;;;10.80;88.20;;;;;;4961979;28;20034;-72
2022/02/09 17:56:26;;;;;;;3.25;2.90;;;10.80;88.60;;;;;;4959149;28;20035;-72
2022/02/09 17:58:53;;;;;;;3.22;2.92;;;10.80;88.40;;;;;;4964040;28;20064;-72
2022/02/09 18:01:20;;;;;;;6.25;3.20;;;10.80;88.70;;;;;;4963215;28;20066;-72
2022/02/09 18:03:47;;;;;;;3.70;2.92;;;10.80;88.60;;;;;;4965529;28;20030;-72
2022/02/09 18:14:15;;;;;;;5.22;3.42;;;10.80;88.00;;;;;;4959489;28;20459;-70
2022/02/09 18:28:23;;;;;;;4.47;3.10;;;10.90;87.40;;;;;;4964406;28;20035;-69
2022/02/09 18:30:42;;;;;;;3.90;3.33;;;10.90;87.20;;;;;;4962812;28;20034;-72
2022/02/09 18:33:14;;;;;;;5.63;4.38;;;11.00;87.20;;;;;;4964754;28;20039;-68
2022/02/09 19:05:58;;;;;;;4.90;3.88;;;11.10;85.60;;;;;;4967179;28;20047;-69
2022/02/09 19:32:58;;;;;;;4.35;3.40;;;11.00;84.70;;;;;;4965903;28;20036;-68
2022/02/09 19:45:56;;;;;;;4.32;2.70;;;11.00;85.10;;;;;;4964784;28;20035;-68
2022/02/09 19:48:26;;;;;;;5.10;3.00;;;11.00;84.50;;;;;;4959842;28;20793;-68
2022/02/09 19:55:53;;;;;;;3.30;3.00;;;10.90;84.70;;;;;;4961990;28;20035;-68
2022/02/09 19:58:23;;;;;;;2.70;2.50;;;11.00;84.70;;;;;;4959368;28;20073;-68
2022/02/09 20:00:49;;;;;;;4.35;2.70;;;10.90;84.90;;;;;;4963823;28;20058;-68
2022/02/09 20:03:16;;;;;;;2.90;2.65;;;10.90;84.80;;;;;;4959625;28;20066;-68
2022/02/09 20:05:41;;;;;;;4.00;3.03;;;10.90;84.90;;;;;;4958261;28;20023;-68
2022/02/09 20:08:07;;;;;;;3.60;3.28;;;10.90;84.60;;;;;;4964646;28;20418;-68
2022/02/09 20:10:34;;;;;;;4.07;3.00;;;10.90;84.70;;;;;;4960825;28;20089;-68
2022/02/09 20:13:00;;;;;;;3.40;3.10;;;10.80;84.50;;;;;;4958548;28;20764;-68
2022/02/09 20:15:26;;;;;;;4.45;3.85;;;10.90;84.90;;;;;;4964490;28;20174;-68
2022/02/09 20:17:52;;;;;;;5.93;4.78;;;10.80;84.90;;;;;;4963741;28;20039;-68
2022/02/09 20:20:27;;;;;;;3.60;3.30;;;10.80;85.10;;;;;;4957607;28;20062;-68
2022/02/09 20:22:55;;;;;;;5.90;4.00;;;10.80;85.40;;;;;;4965844;28;20035;-68
2022/02/09 20:25:23;;;;;;;5.13;3.75;;;10.80;85.30;;;;;;4966230;28;20503;-68
2022/02/09 20:27:51;;;;;;;3.95;3.55;;;10.80;85.50;;;;;;4960658;28;20030;-69
2022/02/09 20:30:20;;;;;;;3.95;3.55;;;10.90;85.00;;;;;;4962472;28;20046;-68
2022/02/09 20:33:00;;;;;;;3.45;3.15;;;10.80;84.90;;;;;;4960974;28;20121;-68
2022/02/09 20:35:26;;;;;;;3.53;3.20;;;10.70;85.20;;;;;;4956655;28;20039;-68
2022/02/09 20:37:54;;;;;;;4.25;3.60;;;10.60;85.40;;;;;;4964803;28;20039;-68
2022/02/09 20:40:35;;;;;;;4.00;3.42;;;10.60;85.60;;;;;;4942330;28;20067;-68
2022/02/09 20:43:02;;;;;;;3.42;3.00;;;10.60;86.20;;;;;;4960118;28;20042;-69
2022/02/09 20:45:39;;;;;;;3.80;3.17;;;10.60;85.90;;;;;;4958755;28;20034;-68
2022/02/09 20:48:08;;;;;;;5.32;3.97;;;10.60;85.60;;;;;;4960194;28;20396;-68
2022/02/09 20:50:35;;;;;;;4.43;3.50;;;10.60;85.60;;;;;;4956802;28;20039;-68
2022/02/09 20:53:02;;;;;;;4.38;3.45;;;10.60;85.60;;;;;;4960814;28;20113;-68
2022/02/09 20:55:29;;;;;;;5.10;3.80;;;10.60;85.60;;;;;;4960570;28;20042;-68
2022/02/09 20:57:56;;;;;;;4.20;3.80;;;10.50;86.00;;;;;;4957036;28;20034;-68
2022/02/09 21:05:49;;;;;;;4.82;4.10;;;10.60;85.90;;;;;;4957653;28;20042;-69
2022/02/09 21:08:31;;;;;;;5.22;4.45;;;10.60;86.10;;;;;;4961984;28;20030;-67
2022/02/09 21:11:15;;;;;;;4.72;3.45;;;10.60;86.20;;;;;;4971578;23;20046;-66
2022/02/09 22:20:36;;;;;;;6.60;5.38;;;10.70;85.40;;;;;;4961500;28;20042;-68
2022/02/09 22:28:22;;;;;;;6.93;5.75;;;10.70;84.90;;;;;;4963142;28;20566;-68
2022/02/09 22:50:27;;;;;;;7.18;5.80;;;10.40;85.60;;;;;;4964548;28;20035;-68
2022/02/09 22:55:09;;;;;;;5.72;4.63;;;10.40;85.70;;;;;;4963347;28;20042;-67
2022/02/09 22:57:45;;;;;;;6.00;4.60;;;10.40;85.90;;;;;;4963590;28;20057;-68
2022/02/09 23:06:29;;;;;;;6.68;4.63;;;10.50;85.60;;;;;;4964720;28;20039;-67
2022/02/09 23:14:01;;;;;;;6.55;5.00;;;10.50;85.70;;;;;;4954230;28;20031;-68
2022/02/09 23:20:07;;;;;;;6.60;4.22;;;10.40;85.50;;;;;;4964268;28;20122;-68
